CheckWX is a tool to help pilots better visualize weather data.  It is not intended as a substitute for an official pre-flight weather briefing.

09:49:47 UTC

SBIH TAF
Itaituba Airport
Itaituba, Brazil
TAF SBIH 062100Z 0700/0712 00000KT 9999 SCT020 TN24/0709Z TX25/0711Z RMK PEI

Jul-7@
00:00 UTC

Jul-7 @ 00:00 UTC

Jul-7@
12:00 UTC

Jul-7 @ 12:00 UTC

TAF SBIH 062100Z 0700/0712 00000KT 9999 SCT020 TN24/0709Z TX25/0711Z RMK PEI
Cloud Levels
  • Scattered at 2,000' AGL